Time;durP1;ratioP1;P1;durP2;ratioP2;P2;SDS_P1;SDS_P2;PMS_P1;PMS_P2;Temp;Humidity;BMP_temperature;BMP_pressure;BME280_temperature;BME280_humidity;BME280_pressure;Samples;Min_cycle;Max_cycle;Signal;HPM_P1;HPM_P2
2022/11/02 06:51:16;;;;;;;7.07;2.67;;;;;;;;;;5140629;27;20267;-85
2022/11/02 06:53:42;;;;;;;6.10;2.13;;;11.10;99.90;;;;;;5136675;28;20199;-84
2022/11/02 07:47:29;;;;;;;7.17;2.07;;;12.00;99.90;;;;;;5139441;27;20615;-84
2022/11/02 07:49:57;;;;;;;7.13;2.07;;;12.60;99.90;;;;;;5138389;28;20167;-85
2022/11/02 07:52:23;;;;;;;4.07;1.63;;;12.80;99.90;;;;;;5120840;28;20191;-85
2022/11/02 07:54:49;;;;;;;6.50;1.93;;;12.80;99.90;;;;;;5135109;28;20587;-83
2022/11/02 07:57:15;;;;;;;4.93;2.20;;;12.70;99.90;;;;;;5136113;28;20175;-85
2022/11/02 07:59:41;;;;;;;3.43;1.53;;;12.70;99.90;;;;;;5136428;28;20185;-83
2022/11/02 08:02:12;;;;;;;6.13;1.80;;;12.90;99.90;;;;;;5136295;28;20202;-84
2022/11/02 08:04:37;;;;;;;2.27;1.27;;;13.80;99.90;;;;;;5135536;28;20609;-85
2022/11/02 08:07:03;;;;;;;7.20;1.60;;;14.90;99.90;;;;;;5136806;27;20191;-84
2022/11/02 08:09:29;;;;;;;5.27;1.40;;;15.40;99.90;;;;;;5135118;28;20206;-85
2022/11/02 08:11:56;;;;;;;5.60;2.20;;;15.80;99.90;;;;;;5138753;28;20175;-86
2022/11/02 08:14:22;;;;;;;4.50;1.87;;;16.20;99.90;;;;;;5134654;27;20193;-84
2022/11/02 08:16:50;;;;;;;10.67;2.20;;;15.40;99.90;;;;;;5134483;27;20170;-85
2022/11/02 08:19:16;;;;;;;10.53;2.57;;;14.50;99.90;;;;;;5134322;27;20258;-84
2022/11/02 08:21:42;;;;;;;26.23;12.90;;;13.80;99.90;;;;;;5135146;27;20195;-83
2022/11/02 08:24:07;;;;;;;27.33;16.77;;;13.40;99.90;;;;;;5134338;28;20663;-84
2022/11/02 08:26:33;;;;;;;11.73;5.23;;;13.30;99.90;;;;;;5138431;27;20669;-84
2022/11/02 08:28:59;;;;;;;16.77;11.23;;;13.30;99.90;;;;;;5138338;27;20182;-85
2022/11/02 08:31:24;;;;;;;16.13;10.53;;;13.20;99.90;;;;;;5138710;27;20167;-84
2022/11/02 08:33:52;;;;;;;9.60;4.27;;;13.20;99.90;;;;;;5136456;28;20595;-84
2022/11/02 08:36:18;;;;;;;11.50;5.70;;;13.20;99.90;;;;;;5136606;28;20232;-84
2022/11/02 08:38:43;;;;;;;6.77;2.17;;;13.30;99.90;;;;;;5137470;27;20582;-85
2022/11/02 08:41:09;;;;;;;7.10;2.40;;;13.30;99.90;;;;;;5137468;27;20216;-85
2022/11/02 08:43:35;;;;;;;6.30;2.73;;;13.30;99.90;;;;;;5136812;27;20695;-85
2022/11/02 08:46:01;;;;;;;12.13;7.10;;;13.40;99.90;;;;;;5133972;28;20213;-83
2022/11/02 08:48:27;;;;;;;9.90;2.10;;;13.40;99.90;;;;;;5132157;28;20170;-81
2022/11/02 08:50:54;;;;;;;18.83;9.90;;;13.40;99.90;;;;;;5132016;28;20186;-83
2022/11/02 08:53:20;;;;;;;6.70;3.90;;;13.40;99.90;;;;;;5135800;28;20604;-83
2022/11/02 08:55:45;;;;;;;9.33;4.50;;;13.40;99.90;;;;;;5138298;27;20168;-83
2022/11/02 08:58:11;;;;;;;10.00;4.47;;;13.30;99.90;;;;;;5126728;28;20711;-84
2022/11/02 09:00:37;;;;;;;6.30;2.33;;;13.20;99.90;;;;;;5124299;28;20171;-84
2022/11/02 09:03:14;;;;;;;10.70;5.33;;;13.20;99.90;;;;;;5124349;28;20244;-83
2022/11/02 09:05:44;;;;;;;6.47;2.30;;;13.20;99.90;;;;;;5126008;28;20285;-84
2022/11/02 09:08:15;;;;;;;4.83;2.10;;;13.30;99.90;;;;;;5123720;28;20172;-83
2022/11/02 09:10:41;;;;;;;6.43;1.83;;;13.20;99.90;;;;;;5124175;28;20589;-84
2022/11/02 09:13:10;;;;;;;4.90;1.60;;;13.20;99.90;;;;;;5122175;28;20241;-84
2022/11/02 09:15:36;;;;;;;8.37;2.57;;;13.20;99.90;;;;;;5123118;28;20179;-84
2022/11/02 09:18:03;;;;;;;4.27;2.00;;;13.20;99.90;;;;;;5122412;28;20175;-83
2022/11/02 09:20:29;;;;;;;5.73;2.27;;;13.10;99.90;;;;;;5122701;28;20174;-84
2022/11/02 09:22:55;;;;;;;10.17;3.40;;;13.00;99.90;;;;;;5122524;28;20191;-85
2022/11/02 09:25:20;;;;;;;10.77;4.13;;;13.00;99.90;;;;;;5122297;28;20175;-84
2022/11/02 09:27:51;;;;;;;6.73;1.97;;;13.00;99.90;;;;;;5121754;28;20177;-84
2022/11/02 09:30:16;;;;;;;11.53;3.60;;;13.00;99.90;;;;;;5122421;27;20529;-83
2022/11/02 09:32:42;;;;;;;8.23;2.17;;;13.10;99.90;;;;;;5120548;28;20202;-84
2022/11/02 09:35:10;;;;;;;6.70;3.50;;;13.30;99.90;;;;;;5122491;28;20200;-84
2022/11/02 09:37:36;;;;;;;4.37;1.53;;;13.20;99.90;;;;;;5121155;28;20228;-84
2022/11/02 09:40:04;;;;;;;7.90;2.63;;;13.20;99.90;;;;;;5121147;28;20176;-84
2022/11/02 09:43:11;;;;;;;7.83;3.07;;;13.20;99.90;;;;;;5121917;27;20196;-84
2022/11/02 09:46:05;;;;;;;7.93;3.17;;;13.20;99.90;;;;;;5122260;28;20233;-84
2022/11/02 09:48:44;;;;;;;11.80;4.20;;;13.10;99.90;;;;;;5117549;28;20645;-83
2022/11/02 09:51:33;;;;;;;9.33;3.40;;;13.10;99.90;;;;;;5121670;28;20214;-84
2022/11/02 09:54:08;;;;;;;3.77;1.50;;;13.00;99.90;;;;;;5123289;28;20187;-84
2022/11/02 09:56:34;;;;;;;5.57;1.83;;;12.90;99.90;;;;;;5120267;28;20167;-84
2022/11/02 09:59:04;;;;;;;6.27;2.23;;;12.90;99.90;;;;;;5121029;28;20717;-84
2022/11/02 10:01:48;;;;;;;5.27;1.93;;;12.90;99.90;;;;;;5122264;28;20704;-83
2022/11/02 10:04:31;;;;;;;5.63;2.00;;;12.90;99.90;;;;;;5123026;28;20550;-82
2022/11/02 10:07:16;;;;;;;7.30;2.00;;;13.00;99.90;;;;;;5122960;28;20203;-83
2022/11/02 10:09:45;;;;;;;5.33;1.60;;;13.00;99.90;;;;;;5120022;28;20551;-85
2022/11/02 10:12:36;;;;;;;11.40;3.47;;;13.00;99.90;;;;;;5121705;28;20195;-84
2022/11/02 10:15:14;;;;;;;7.67;2.00;;;13.10;99.90;;;;;;5120434;28;20188;-84
2022/11/02 10:17:41;;;;;;;6.77;3.00;;;13.20;99.90;;;;;;5120459;28;20182;-84
2022/11/02 10:20:30;;;;;;;8.83;3.27;;;13.20;99.90;;;;;;5119766;28;20171;-84
2022/11/02 10:23:02;;;;;;;8.10;2.40;;;13.20;99.90;;;;;;5089307;28;20216;-85
2022/11/02 10:25:28;;;;;;;4.37;1.70;;;13.20;99.90;;;;;;5121107;28;20183;-83
2022/11/02 10:28:03;;;;;;;5.77;1.97;;;13.10;99.90;;;;;;5121023;28;20174;-83
2022/11/02 10:30:29;;;;;;;4.23;2.13;;;13.10;99.90;;;;;;5122080;28;20238;-84
2022/11/02 10:32:55;;;;;;;10.50;3.30;;;13.10;99.90;;;;;;5122366;28;20195;-84
2022/11/02 10:35:45;;;;;;;9.40;3.20;;;13.10;99.90;;;;;;5119744;28;20633;-84
2022/11/02 10:38:23;;;;;;;10.10;4.00;;;13.10;99.90;;;;;;5119020;28;20167;-86
2022/11/02 10:41:16;;;;;;;7.27;3.17;;;13.10;99.90;;;;;;5119052;28;20167;-84
2022/11/02 10:44:00;;;;;;;7.20;2.97;;;13.20;99.90;;;;;;5119785;28;20188;-84
2022/11/02 10:46:41;;;;;;;9.13;3.13;;;13.10;99.90;;;;;;5118771;28;20229;-84
2022/11/02 10:49:38;;;;;;;10.27;2.20;;;13.20;99.90;;;;;;5119496;28;20172;-86
2022/11/02 10:52:04;;;;;;;5.60;2.00;;;13.10;99.90;;;;;;5119034;28;20254;-82
2022/11/02 10:54:32;;;;;;;5.63;2.03;;;13.00;99.90;;;;;;5119640;28;20180;-84
2022/11/02 10:56:58;;;;;;;10.57;2.30;;;13.00;99.90;;;;;;5120315;28;20231;-84
2022/11/02 10:59:24;;;;;;;8.20;1.93;;;13.00;99.90;;;;;;5122359;28;20172;-82
2022/11/02 11:01:57;;;;;;;5.27;1.70;;;13.00;99.90;;;;;;5121040;28;20309;-83
2022/11/02 11:04:28;;;;;;;4.43;2.03;;;12.90;99.90;;;;;;5122935;28;20168;-82
2022/11/02 11:06:55;;;;;;;6.10;2.07;;;12.90;99.90;;;;;;5123184;28;20203;-83
2022/11/02 11:09:29;;;;;;;6.80;2.20;;;12.80;99.90;;;;;;5121907;28;20629;-83
2022/11/02 11:11:57;;;;;;;7.17;2.20;;;12.90;99.90;;;;;;5122950;28;20212;-84
2022/11/02 11:14:27;;;;;;;7.43;1.87;;;12.90;99.90;;;;;;5123052;28;20172;-86
2022/11/02 11:17:12;;;;;;;6.70;1.80;;;12.90;99.90;;;;;;5119512;28;20167;-83
2022/11/02 11:19:40;;;;;;;7.07;1.67;;;12.80;99.90;;;;;;5122031;28;20171;-83
2022/11/02 11:22:32;;;;;;;4.57;1.67;;;12.80;99.90;;;;;;5121343;28;20218;-84
2022/11/02 11:25:26;;;;;;;8.67;2.87;;;12.70;99.90;;;;;;5132625;28;20247;-85
2022/11/02 11:27:57;;;;;;;4.13;1.93;;;12.70;99.90;;;;;;5128653;28;20254;-84
2022/11/02 11:30:37;;;;;;;7.83;1.63;;;12.80;99.90;;;;;;5121605;28;20184;-83
2022/11/02 11:33:05;;;;;;;6.27;2.47;;;12.80;99.90;;;;;;5123303;28;20196;-85
2022/11/02 11:35:38;;;;;;;8.37;1.77;;;12.90;99.90;;;;;;5120305;28;20168;-83
2022/11/02 11:38:30;;;;;;;6.60;1.90;;;13.00;99.90;;;;;;5120382;28;20164;-83
2022/11/02 11:40:58;;;;;;;8.17;2.97;;;13.20;99.90;;;;;;5118510;28;20184;-85
2022/11/02 11:43:37;;;;;;;6.70;3.07;;;13.30;99.90;;;;;;5118486;28;20192;-85
2022/11/02 11:46:12;;;;;;;11.67;3.70;;;13.40;99.90;;;;;;5119507;28;20572;-84
2022/11/02 11:48:49;;;;;;;14.23;5.83;;;13.40;99.90;;;;;;5120031;28;20152;-84
2022/11/02 11:51:31;;;;;;;16.43;8.63;;;13.30;99.90;;;;;;5118399;28;20187;-83
2022/11/02 11:54:16;;;;;;;15.20;7.10;;;13.20;99.90;;;;;;5117366;28;20210;-83
2022/11/02 11:56:41;;;;;;;13.77;3.40;;;13.30;99.90;;;;;;5119418;28;20163;-81
2022/11/02 11:59:42;;;;;;;11.43;4.47;;;13.30;99.90;;;;;;5117929;28;20179;-81
2022/11/02 12:02:28;;;;;;;6.80;3.30;;;13.20;99.90;;;;;;5111987;28;20211;-83
2022/11/02 12:05:12;;;;;;;5.80;3.23;;;13.00;99.90;;;;;;5120653;28;20585;-84
2022/11/02 12:07:58;;;;;;;7.50;2.43;;;13.00;99.90;;;;;;5119688;28;20182;-84
2022/11/02 12:10:29;;;;;;;5.27;2.23;;;13.00;99.90;;;;;;5120095;28;20200;-81
2022/11/02 12:13:19;;;;;;;4.70;2.13;;;12.90;99.90;;;;;;5118698;28;20203;-83
2022/11/02 12:16:01;;;;;;;5.30;1.67;;;13.00;99.90;;;;;;5118296;28;20685;-83
2022/11/02 12:18:33;;;;;;;5.60;1.70;;;13.10;99.90;;;;;;5119201;28;20167;-82
2022/11/02 12:21:23;;;;;;;3.50;1.53;;;13.00;99.90;;;;;;5121297;28;20213;-82
2022/11/02 12:24:08;;;;;;;4.57;1.97;;;13.00;99.90;;;;;;5120570;28;20552;-84
2022/11/02 12:26:48;;;;;;;6.73;1.50;;;13.00;99.90;;;;;;5119938;28;20726;-85
2022/11/02 12:29:52;;;;;;;6.40;2.00;;;13.00;99.90;;;;;;5121904;28;20494;-83
2022/11/02 12:33:03;;;;;;;5.57;1.43;;;13.10;99.90;;;;;;5123133;28;20191;-84
2022/11/02 12:36:04;;;;;;;3.97;1.90;;;13.10;99.90;;;;;;5123204;28;20204;-84
2022/11/02 12:38:32;;;;;;;6.80;2.20;;;13.00;99.90;;;;;;5122485;28;20616;-82
2022/11/02 12:41:09;;;;;;;8.97;2.10;;;12.90;99.90;;;;;;5125165;28;20173;-83
2022/11/02 12:43:47;;;;;;;8.10;1.60;;;12.80;99.90;;;;;;5123001;28;20202;-82
2022/11/02 12:46:31;;;;;;;6.60;2.10;;;12.90;99.90;;;;;;5122371;28;20207;-82
2022/11/02 12:49:21;;;;;;;8.70;1.93;;;13.00;99.90;;;;;;5122831;28;20164;-83
2022/11/02 12:52:22;;;;;;;5.93;1.80;;;13.00;99.90;;;;;;5122344;28;20172;-83
2022/11/02 12:54:55;;;;;;;6.73;2.00;;;12.90;99.90;;;;;;5099446;28;20179;-84
2022/11/02 12:57:24;;;;;;;4.57;2.30;;;12.80;99.90;;;;;;5124537;28;20183;-83
2022/11/02 12:59:54;;;;;;;5.87;1.50;;;12.80;99.90;;;;;;5122112;28;20206;-83
2022/11/02 13:02:44;;;;;;;4.70;2.90;;;12.80;99.90;;;;;;5122131;28;20199;-84
2022/11/02 13:05:17;;;;;;;5.07;1.63;;;12.80;99.90;;;;;;5123378;28;20327;-83
2022/11/02 13:07:45;;;;;;;4.23;1.30;;;12.80;99.90;;;;;;5123877;28;20164;-83
2022/11/02 13:10:29;;;;;;;6.40;1.73;;;12.70;99.90;;;;;;5121689;28;20176;-83
2022/11/02 13:12:58;;;;;;;3.97;1.70;;;12.70;99.90;;;;;;5124779;28;20198;-83
2022/11/02 13:15:26;;;;;;;4.23;1.60;;;12.60;99.90;;;;;;5123532;28;20250;-83
2022/11/02 13:18:15;;;;;;;6.00;2.30;;;12.60;99.90;;;;;;5124661;28;20530;-83
2022/11/02 13:20:54;;;;;;;8.57;1.67;;;12.60;99.90;;;;;;5109740;28;20184;-83
2022/11/02 13:23:38;;;;;;;5.23;1.83;;;12.50;99.90;;;;;;5121948;28;20569;-82
2022/11/02 13:26:18;;;;;;;4.97;2.80;;;12.40;99.90;;;;;;5122101;28;20188;-84
2022/11/02 13:28:48;;;;;;;7.10;3.47;;;12.50;99.90;;;;;;5125399;28;20156;-84
2022/11/02 13:31:19;;;;;;;6.03;1.77;;;12.50;99.90;;;;;;5122534;28;20267;-83
2022/11/02 13:33:55;;;;;;;9.37;2.00;;;12.60;99.90;;;;;;5122709;28;20221;-83
2022/11/02 13:36:21;;;;;;;4.30;2.33;;;12.60;99.90;;;;;;5122175;28;20182;-84
2022/11/02 13:39:25;;;;;;;3.93;1.60;;;12.60;99.90;;;;;;5127135;28;20200;-83
2022/11/02 13:41:51;;;;;;;4.63;2.13;;;12.60;99.90;;;;;;5117894;28;20232;-84
2022/11/02 13:44:48;;;;;;;6.70;1.90;;;12.60;99.90;;;;;;5125576;28;20184;-84
2022/11/02 13:47:16;;;;;;;6.97;1.87;;;12.70;99.90;;;;;;5125425;28;20299;-84
2022/11/02 13:49:48;;;;;;;4.90;1.57;;;12.70;99.90;;;;;;5124439;28;20193;-85
2022/11/02 13:52:19;;;;;;;3.67;1.87;;;12.70;99.90;;;;;;5124643;28;20259;-84
2022/11/02 13:54:49;;;;;;;3.27;1.57;;;12.60;99.90;;;;;;5123719;28;20522;-84
2022/11/02 13:57:32;;;;;;;4.67;1.60;;;12.60;99.90;;;;;;5124056;28;20183;-82
2022/11/02 14:00:00;;;;;;;3.77;1.90;;;12.60;99.90;;;;;;5122379;28;20163;-83
2022/11/02 14:02:29;;;;;;;6.33;1.87;;;12.70;99.90;;;;;;5122927;28;20224;-85
2022/11/02 14:04:55;;;;;;;6.93;1.97;;;12.80;99.90;;;;;;5123302;28;20176;-85
2022/11/02 14:07:23;;;;;;;4.20;1.77;;;12.80;99.90;;;;;;5121719;28;20266;-84
2022/11/02 14:09:55;;;;;;;8.50;1.57;;;12.80;99.90;;;;;;5122126;28;20171;-83
2022/11/02 14:12:20;;;;;;;4.47;1.47;;;12.90;99.90;;;;;;5122317;28;20191;-87
2022/11/02 14:15:12;;;;;;;3.57;1.67;;;12.90;99.90;;;;;;5121859;28;20262;-84
2022/11/02 14:18:00;;;;;;;6.77;1.70;;;12.90;99.90;;;;;;5123208;28;20193;-85
2022/11/02 14:20:32;;;;;;;7.63;1.97;;;12.90;99.90;;;;;;5122076;28;20156;-84
2022/11/02 14:25:57;;;;;;;6.40;1.80;;;12.80;99.90;;;;;;5122670;28;20209;-84
2022/11/02 14:28:25;;;;;;;3.70;1.90;;;12.80;99.90;;;;;;5121045;28;20765;-85
2022/11/02 14:30:57;;;;;;;4.77;1.70;;;12.80;99.90;;;;;;5122211;28;20178;-85
2022/11/02 14:33:36;;;;;;;6.50;1.70;;;12.90;99.90;;;;;;5136013;28;20206;-84
2022/11/02 14:36:50;;;;;;;7.13;1.80;;;12.90;99.90;;;;;;5134740;28;20170;-83
2022/11/02 14:40:09;;;;;;;5.40;1.80;;;13.00;99.90;;;;;;5066136;28;20189;-85
2022/11/02 14:42:35;;;;;;;6.87;1.93;;;13.00;99.90;;;;;;5061348;28;20205;-84
2022/11/02 14:45:18;;;;;;;4.03;1.80;;;12.90;99.90;;;;;;5113509;28;20582;-83
2022/11/02 14:47:44;;;;;;;6.40;1.67;;;12.80;99.90;;;;;;5121634;28;20239;-85
2022/11/02 14:50:09;;;;;;;4.47;1.63;;;12.70;99.90;;;;;;5119452;28;20270;-85
2022/11/02 14:52:36;;;;;;;5.77;1.93;;;12.60;99.90;;;;;;5120663;28;20187;-85
2022/11/02 14:55:20;;;;;;;3.30;1.67;;;12.60;99.90;;;;;;5119992;28;20206;-85
2022/11/02 14:58:00;;;;;;;6.00;1.93;;;12.50;99.90;;;;;;5119585;28;20275;-83
2022/11/02 15:00:43;;;;;;;3.70;1.80;;;12.40;99.90;;;;;;5120543;28;20179;-86
2022/11/02 15:03:28;;;;;;;5.77;1.80;;;12.30;99.90;;;;;;5119334;28;20214;-82
2022/11/02 15:06:25;;;;;;;5.73;1.80;;;12.20;99.90;;;;;;5117709;28;20191;-83
2022/11/02 15:08:57;;;;;;;8.40;1.80;;;12.10;99.90;;;;;;5118006;28;20152;-84
2022/11/02 15:11:55;;;;;;;3.97;1.90;;;12.00;99.90;;;;;;5120775;28;20179;-86
2022/11/02 15:21:44;;;;;;;4.87;2.43;;;11.80;99.90;;;;;;5140949;27;20271;-85
2022/11/02 15:24:16;;;;;;;6.57;2.37;;;11.80;99.90;;;;;;5139133;28;20205;-86
